createdAt,value
2023-02-22T00:00:23.897Z,6.85
2023-02-22T00:02:51.473Z,6.85
2023-02-22T00:05:19.418Z,6.89
2023-02-22T00:07:48.168Z,6.91
2023-02-22T00:10:17.946Z,6.94
2023-02-22T00:12:44.419Z,6.96
2023-02-22T00:15:10.902Z,6.99
2023-02-22T00:17:37.373Z,7.01
2023-02-22T00:20:04.340Z,7.04
2023-02-22T00:22:30.798Z,7.05
2023-02-22T00:24:57.865Z,7.06
2023-02-22T00:27:24.350Z,7.09
2023-02-22T00:29:50.843Z,7.11
2023-02-22T00:32:17.398Z,7.13
2023-02-22T00:34:43.908Z,7.15
2023-02-22T00:37:11.243Z,7.15
2023-02-22T00:39:37.861Z,7.16
2023-02-22T00:42:04.374Z,7.18
2023-02-22T00:44:30.846Z,7.20
2023-02-22T00:46:57.304Z,7.19
2023-02-22T00:49:23.818Z,7.22
2023-02-22T00:51:50.265Z,7.23
2023-02-22T00:54:16.735Z,7.23
2023-02-22T00:56:43.151Z,7.25
2023-02-22T00:59:09.601Z,7.24
2023-02-22T01:01:36.107Z,7.26
2023-02-22T01:04:02.693Z,7.28
2023-02-22T01:06:29.208Z,7.29
2023-02-22T01:08:58.087Z,7.26
2023-02-22T01:11:24.717Z,7.32
2023-02-22T01:13:51.173Z,7.33
2023-02-22T01:16:21.084Z,7.35
2023-02-22T01:18:47.732Z,7.36
2023-02-22T01:21:15.722Z,7.38
2023-02-22T01:23:45.260Z,7.34
2023-02-22T01:26:11.914Z,7.40
2023-02-22T01:28:39.286Z,7.42
2023-02-22T01:31:05.878Z,7.42
2023-02-22T01:33:32.591Z,7.45
2023-02-22T01:35:59.264Z,7.46
2023-02-22T01:38:27.362Z,7.47
2023-02-22T01:40:54.481Z,7.49
2023-02-22T01:43:30.297Z,7.43
2023-02-22T01:46:03.017Z,7.51
2023-02-22T01:48:32.336Z,7.50
2023-02-22T01:51:11.294Z,7.50
2023-02-22T01:53:43.795Z,7.51
2023-02-22T01:56:11.472Z,7.50
2023-02-22T01:58:44.444Z,7.43
2023-02-22T02:01:11.522Z,7.47
2023-02-22T02:03:41.793Z,7.41
2023-02-22T02:06:13.014Z,7.34
2023-02-22T02:09:25.429Z,7.37
2023-02-22T02:11:53.120Z,7.38
2023-02-22T02:14:20.991Z,7.35
2023-02-22T02:16:52.037Z,7.34
2023-02-22T02:19:24.293Z,7.32
2023-02-22T02:22:10.750Z,7.23
2023-02-22T02:25:01.675Z,7.26
2023-02-22T02:28:06.921Z,7.16
2023-02-22T02:30:54.977Z,7.17
2023-02-22T02:33:44.657Z,7.16
2023-02-22T02:36:23.225Z,7.13
2023-02-22T02:39:28.414Z,7.13
2023-02-22T02:41:57.870Z,7.10
2023-02-22T02:44:41.387Z,7.09
2023-02-22T02:47:17.329Z,7.07
2023-02-22T02:49:50.949Z,7.07
2023-02-22T02:52:20.621Z,6.99
2023-02-22T02:54:48.914Z,7.00
2023-02-22T02:57:15.444Z,7.00
2023-02-22T02:59:42.665Z,6.98
2023-02-22T03:02:15.156Z,6.98
2023-02-22T03:05:00.466Z,6.97
2023-02-22T03:07:39.113Z,6.96
2023-02-22T03:10:05.600Z,6.94
2023-02-22T03:12:44.205Z,6.86
2023-02-22T03:15:18.885Z,6.89
2023-02-22T03:18:05.897Z,6.83
2023-02-22T03:20:53.076Z,6.86
2023-02-22T03:23:28.205Z,6.84
2023-02-22T03:26:03.259Z,6.84
2023-02-22T03:28:33.624Z,6.76
2023-02-22T03:31:06.173Z,6.78
2023-02-22T03:33:40.370Z,6.72
2023-02-22T03:36:17.119Z,6.76
2023-02-22T03:38:45.384Z,6.75
2023-02-22T03:41:18.942Z,6.68
2023-02-22T03:43:53.993Z,6.71
2023-02-22T03:46:21.873Z,6.72
2023-02-22T03:48:58.792Z,6.68
2023-02-22T03:51:28.419Z,6.71
2023-02-22T03:53:59.258Z,6.71
2023-02-22T03:56:34.473Z,6.74
2023-02-22T03:59:11.089Z,6.70
2023-02-22T04:01:37.719Z,6.70
2023-02-22T04:04:05.122Z,6.69
2023-02-22T04:06:32.549Z,6.68
2023-02-22T04:09:00.953Z,6.67
2023-02-22T04:11:27.456Z,6.68
2023-02-22T04:13:54.326Z,6.68
2023-02-22T04:16:21.516Z,6.66
2023-02-22T04:18:49.616Z,6.69
2023-02-22T04:21:18.758Z,6.69
2023-02-22T04:23:48.333Z,6.68
2023-02-22T04:26:15.369Z,6.68
2023-02-22T04:28:45.988Z,6.70
2023-02-22T04:31:16.183Z,6.70
2023-02-22T04:33:43.533Z,6.71
2023-02-22T04:36:13.497Z,6.70
2023-02-22T04:38:40.213Z,6.71
2023-02-22T04:41:06.988Z,6.68
2023-02-22T04:43:33.548Z,6.71
2023-02-22T04:46:16.301Z,6.71
2023-02-22T04:48:43.374Z,6.71
2023-02-22T04:51:10.111Z,6.71
2023-02-22T04:53:39.693Z,6.69
2023-02-22T04:56:07.315Z,6.67
2023-02-22T04:58:34.092Z,6.68
2023-02-22T05:01:00.972Z,6.69
2023-02-22T05:03:27.606Z,6.68
2023-02-22T05:05:54.497Z,6.69
2023-02-22T05:08:20.990Z,6.69
2023-02-22T05:10:47.469Z,6.68
2023-02-22T05:13:13.901Z,6.65
2023-02-22T05:15:40.427Z,6.71
2023-02-22T05:18:06.900Z,6.71
2023-02-22T05:20:35.282Z,6.66
2023-02-22T05:23:02.673Z,6.74
2023-02-22T05:25:29.406Z,6.75
2023-02-22T05:27:58.671Z,6.76
2023-02-22T05:30:34.565Z,6.78
2023-02-22T05:33:01.174Z,6.78
2023-02-22T05:35:28.480Z,6.77
2023-02-22T05:37:55.733Z,6.77
2023-02-22T05:40:24.784Z,6.74
2023-02-22T05:42:51.850Z,6.74
2023-02-22T05:45:20.330Z,6.76
2023-02-22T05:47:47.325Z,6.77
2023-02-22T05:50:15.518Z,6.76
2023-02-22T05:52:42.058Z,6.76
2023-02-22T05:55:10.389Z,6.76
2023-02-22T05:57:37.089Z,6.77
2023-02-22T06:00:06.652Z,6.77
2023-02-22T06:02:39.448Z,6.76
2023-02-22T06:05:06.350Z,6.76
2023-02-22T06:07:32.797Z,6.76
2023-02-22T06:09:59.252Z,6.76
2023-02-22T06:12:26.014Z,6.74
2023-02-22T06:14:52.505Z,6.72
2023-02-22T06:17:20.584Z,6.72
2023-02-22T06:19:47.152Z,6.71
2023-02-22T06:22:18.506Z,6.71
2023-02-22T06:24:45.063Z,6.70
2023-02-22T06:27:11.597Z,6.70
2023-02-22T06:29:38.372Z,6.71
2023-02-22T06:32:05.263Z,6.67
2023-02-22T06:34:31.799Z,6.71
2023-02-22T06:36:59.981Z,6.73
2023-02-22T06:39:26.638Z,6.75
2023-02-22T06:41:53.247Z,6.77
2023-02-22T06:44:19.702Z,6.79
2023-02-22T06:46:49.897Z,6.79
2023-02-22T06:49:17.007Z,6.79
2023-02-22T06:51:43.619Z,6.79
2023-02-22T06:54:10.093Z,6.79
2023-02-22T06:56:36.520Z,6.78
2023-02-22T06:59:03.004Z,6.79
2023-02-22T07:01:29.816Z,6.81
2023-02-22T07:03:56.348Z,6.82
2023-02-22T07:06:22.937Z,6.84
2023-02-22T07:08:49.435Z,6.84
2023-02-22T07:11:16.929Z,6.85
2023-02-22T07:13:43.622Z,6.86
2023-02-22T07:16:10.184Z,6.88
2023-02-22T07:18:36.742Z,6.88
2023-02-22T07:21:03.315Z,6.89
2023-02-22T07:23:29.931Z,6.87
2023-02-22T07:26:00.206Z,6.87
2023-02-22T07:28:26.649Z,6.90
2023-02-22T07:30:53.131Z,6.92
2023-02-22T07:33:19.607Z,6.92
2023-02-22T07:35:48.082Z,6.86
2023-02-22T07:38:16.254Z,6.94
2023-02-22T07:40:43.102Z,6.96
2023-02-22T07:43:19.771Z,6.97
2023-02-22T07:45:48.102Z,6.97
2023-02-22T07:48:17.597Z,6.96
2023-02-22T07:50:44.613Z,6.97
2023-02-22T07:53:17.367Z,6.98
2023-02-22T07:56:05.569Z,7.01
2023-02-22T07:58:52.426Z,6.98
2023-02-22T08:01:39.275Z,7.04
2023-02-22T08:04:26.178Z,7.04
2023-02-22T08:07:13.004Z,7.05
2023-02-22T08:09:59.767Z,7.09
2023-02-22T08:12:46.602Z,7.09
2023-02-22T08:15:35.939Z,7.10
2023-02-22T08:18:24.524Z,7.11
2023-02-22T08:21:11.309Z,7.13
2023-02-22T08:23:58.110Z,7.15
2023-02-22T08:26:45.889Z,7.17
2023-02-22T08:29:32.725Z,7.19
2023-02-22T08:32:20.797Z,7.22
2023-02-22T08:35:08.342Z,7.23
2023-02-22T08:37:58.605Z,7.25
2023-02-22T08:40:45.437Z,7.26
2023-02-22T08:43:32.428Z,7.27
2023-02-22T08:46:19.332Z,7.30
2023-02-22T08:49:06.235Z,7.31
2023-02-22T08:51:53.028Z,7.32
2023-02-22T08:54:39.804Z,7.34
2023-02-22T08:57:26.990Z,7.38
2023-02-22T09:00:14.842Z,7.41
2023-02-22T09:03:07.010Z,7.47
2023-02-22T09:05:53.881Z,7.51
2023-02-22T09:08:40.792Z,7.56
2023-02-22T09:11:28.181Z,7.63
2023-02-22T09:14:15.653Z,7.68
2023-02-22T09:17:04.719Z,7.77
2023-02-22T09:19:52.619Z,7.79
2023-02-22T09:22:39.849Z,7.88
2023-02-22T09:25:26.763Z,7.94
2023-02-22T09:28:14.205Z,8.02
2023-02-22T09:31:01.030Z,8.06
2023-02-22T09:33:47.874Z,8.09
2023-02-22T09:36:34.687Z,8.15
2023-02-22T09:39:21.486Z,8.16
2023-02-22T09:42:17.338Z,8.17
2023-02-22T09:45:16.876Z,8.13
2023-02-22T09:48:20.875Z,8.15
2023-02-22T09:51:17.147Z,8.19
2023-02-22T09:54:11.561Z,8.16
2023-02-22T09:57:04.135Z,8.24
2023-02-22T10:00:06.036Z,8.25
2023-02-22T10:03:22.136Z,8.40
2023-02-22T10:06:15.494Z,8.48
2023-02-22T10:09:04.146Z,8.51
2023-02-22T10:11:58.938Z,8.62
2023-02-22T10:15:37.615Z,8.70
2023-02-22T10:18:36.297Z,8.77
2023-02-22T10:21:26.160Z,8.78
2023-02-22T10:24:12.889Z,8.76
2023-02-22T10:27:01.132Z,8.78
2023-02-22T10:29:52.873Z,8.78
2023-02-22T10:32:45.823Z,8.80
2023-02-22T10:35:35.946Z,8.74
2023-02-22T10:38:32.161Z,8.82
2023-02-22T10:41:31.569Z,8.83
2023-02-22T10:44:18.379Z,8.84
2023-02-22T10:47:11.344Z,8.82
2023-02-22T10:50:00.752Z,8.92
2023-02-22T10:52:47.941Z,8.94
2023-02-22T10:55:35.139Z,9.00
2023-02-22T10:58:22.099Z,9.05
2023-02-22T11:01:41.631Z,9.07
2023-02-22T11:04:45.545Z,9.12
2023-02-22T11:07:34.923Z,9.17
2023-02-22T11:10:31.194Z,9.15
2023-02-22T11:13:32.976Z,9.25
2023-02-22T11:16:33.613Z,9.31
2023-02-22T11:19:26.111Z,9.40
2023-02-22T11:22:24.550Z,9.40
2023-02-22T11:25:19.781Z,9.53
2023-02-22T11:28:10.282Z,9.58
2023-02-22T11:31:10.337Z,9.62
2023-02-22T11:34:02.358Z,9.64
2023-02-22T11:36:49.096Z,9.60
2023-02-22T11:39:35.934Z,9.57
2023-02-22T11:42:28.085Z,9.51
2023-02-22T11:45:18.636Z,9.48
2023-02-22T11:48:07.524Z,9.46
2023-02-22T11:51:20.177Z,9.39
2023-02-22T11:54:29.171Z,9.39
2023-02-22T11:57:37.319Z,9.40
2023-02-22T12:00:56.134Z,9.39
2023-02-22T12:03:48.637Z,9.38
2023-02-22T12:07:12.858Z,9.34
2023-02-22T12:10:24.421Z,9.32
2023-02-22T12:13:49.136Z,9.32
2023-02-22T12:17:07.441Z,9.28
2023-02-22T12:20:06.942Z,9.23
2023-02-22T12:23:05.934Z,9.26
2023-02-22T12:26:13.269Z,9.22
2023-02-22T12:29:25.711Z,9.22
2023-02-22T12:32:24.650Z,9.20
2023-02-22T12:35:18.852Z,9.17
2023-02-22T12:38:14.686Z,9.21
2023-02-22T12:41:32.339Z,9.23
2023-02-22T12:44:30.316Z,9.25
2023-02-22T12:47:23.006Z,9.35
2023-02-22T12:50:19.539Z,9.40
2023-02-22T12:53:25.471Z,9.51
2023-02-22T12:56:18.607Z,9.50
2023-02-22T12:59:20.644Z,9.59
2023-02-22T13:02:42.935Z,9.61
2023-02-22T13:05:36.786Z,9.50
2023-02-22T13:08:37.495Z,9.46
2023-02-22T13:12:07.641Z,9.43
2023-02-22T13:15:06.234Z,9.42
2023-02-22T13:18:08.589Z,9.40
2023-02-22T13:21:20.113Z,9.39
2023-02-22T13:24:19.057Z,9.34
2023-02-22T13:27:11.637Z,9.40
2023-02-22T13:30:00.461Z,9.33
2023-02-22T13:32:55.994Z,9.42
2023-02-22T13:36:04.030Z,9.44
2023-02-22T13:39:19.992Z,9.47
2023-02-22T13:42:36.294Z,9.48
2023-02-22T13:45:35.546Z,9.55
2023-02-22T13:48:28.233Z,9.65
2023-02-22T13:51:21.070Z,9.72
2023-02-22T13:54:16.732Z,9.73
2023-02-22T13:57:16.796Z,9.78
2023-02-22T14:00:15.897Z,9.87
2023-02-22T14:03:14.786Z,9.95
2023-02-22T14:06:06.882Z,9.99
2023-02-22T14:08:53.767Z,10.09
2023-02-22T14:11:41.570Z,10.22
2023-02-22T14:14:28.428Z,10.35
2023-02-22T14:17:19.723Z,10.49
2023-02-22T14:20:12.625Z,10.59
2023-02-22T14:23:27.577Z,10.67
2023-02-22T14:26:26.471Z,10.67
2023-02-22T14:29:18.365Z,10.59
2023-02-22T14:32:09.440Z,10.60
2023-02-22T14:35:25.227Z,10.49
2023-02-22T14:38:17.649Z,10.33
2023-02-22T14:41:05.681Z,10.17
2023-02-22T14:43:56.110Z,10.04
2023-02-22T14:46:46.473Z,9.94
2023-02-22T14:49:38.444Z,9.79
2023-02-22T14:52:29.363Z,9.65
2023-02-22T14:55:22.577Z,9.50
2023-02-22T14:58:23.335Z,9.50
2023-02-22T15:01:19.216Z,9.43
2023-02-22T15:04:28.377Z,9.33
2023-02-22T15:07:30.780Z,9.36
2023-02-22T15:10:26.516Z,9.43
2023-02-22T15:13:18.776Z,9.42
2023-02-22T15:16:05.983Z,9.39
2023-02-22T15:18:57.267Z,9.24
2023-02-22T15:21:47.018Z,9.25
2023-02-22T15:24:36.292Z,9.20
2023-02-22T15:27:23.182Z,9.15
2023-02-22T15:30:36.571Z,9.07
2023-02-22T15:33:29.659Z,9.03
2023-02-22T15:36:16.853Z,9.00
2023-02-22T15:39:03.825Z,8.98
2023-02-22T15:42:01.183Z,8.94
2023-02-22T15:44:52.887Z,8.89
2023-02-22T15:47:39.816Z,8.87
2023-02-22T15:50:34.526Z,8.85
2023-02-22T15:53:21.255Z,8.85
2023-02-22T15:56:13.536Z,8.86
2023-02-22T15:59:07.253Z,8.86
2023-02-22T16:01:55.015Z,8.94
2023-02-22T16:04:45.898Z,9.00
2023-02-22T16:07:43.888Z,9.03
2023-02-22T16:10:32.752Z,9.06
2023-02-22T16:13:32.186Z,9.06
2023-02-22T16:16:04.919Z,9.07
2023-02-22T16:18:37.443Z,9.04
2023-02-22T16:21:20.734Z,9.06
2023-02-22T16:24:01.324Z,9.12
2023-02-22T16:26:34.625Z,9.11
2023-02-22T16:29:01.032Z,9.11
2023-02-22T16:31:30.510Z,9.13
2023-02-22T16:33:57.302Z,9.14
2023-02-22T16:36:37.836Z,9.14
2023-02-22T16:39:12.431Z,9.17
2023-02-22T16:41:38.933Z,9.20
2023-02-22T16:44:05.562Z,9.20
2023-02-22T16:46:32.198Z,9.23
2023-02-22T16:48:58.703Z,9.27
2023-02-22T16:51:27.612Z,9.31
2023-02-22T16:53:55.456Z,9.37
2023-02-22T16:56:31.438Z,9.40
2023-02-22T16:59:02.786Z,9.36
2023-02-22T17:01:29.275Z,9.39
2023-02-22T17:03:55.777Z,9.38
2023-02-22T17:06:22.288Z,9.33
2023-02-22T17:08:48.769Z,9.27
2023-02-22T17:11:15.269Z,9.22
2023-02-22T17:13:41.777Z,9.18
2023-02-22T17:16:13.784Z,9.10
2023-02-22T17:18:40.377Z,9.12
2023-02-22T17:21:07.161Z,9.06
2023-02-22T17:23:33.638Z,9.04
2023-02-22T17:26:01.916Z,9.00
2023-02-22T17:28:28.693Z,8.97
2023-02-22T17:30:56.890Z,8.95
2023-02-22T17:33:24.613Z,8.92
2023-02-22T17:35:51.086Z,8.90
2023-02-22T17:38:17.566Z,8.87
2023-02-22T17:40:46.232Z,8.85
2023-02-22T17:43:12.734Z,8.80
2023-02-22T17:45:40.062Z,8.78
2023-02-22T17:48:07.504Z,8.75
2023-02-22T17:50:37.070Z,8.70
2023-02-22T17:53:03.830Z,8.68
2023-02-22T17:55:30.440Z,8.64
2023-02-22T17:57:58.083Z,8.61
2023-02-22T18:00:27.315Z,8.49
2023-02-22T18:02:53.881Z,8.55
2023-02-22T18:05:20.484Z,8.50
2023-02-22T18:07:47.018Z,8.45
2023-02-22T18:10:13.542Z,8.39
2023-02-22T18:12:41.280Z,8.30
2023-02-22T18:15:09.608Z,8.24
2023-02-22T18:17:37.140Z,8.16
2023-02-22T18:20:07.049Z,8.09
2023-02-22T18:22:33.564Z,8.03
2023-02-22T18:25:01.938Z,7.97
2023-02-22T18:27:28.555Z,7.89
2023-02-22T18:29:55.311Z,7.81
2023-02-22T18:32:21.828Z,7.73
2023-02-22T18:34:48.289Z,7.65
2023-02-22T18:37:14.781Z,7.59
2023-02-22T18:39:41.215Z,7.54
2023-02-22T18:42:07.680Z,7.47
2023-02-22T18:44:34.161Z,7.40
2023-02-22T18:47:00.628Z,7.31
2023-02-22T18:49:27.145Z,7.27
2023-02-22T18:51:53.594Z,7.26
2023-02-22T18:54:20.049Z,7.25
2023-02-22T18:56:46.555Z,7.25
2023-02-22T18:59:13.189Z,7.24
2023-02-22T19:01:40.573Z,7.22
2023-02-22T19:04:08.684Z,7.18
2023-02-22T19:06:36.089Z,7.17
2023-02-22T19:09:03.210Z,7.13
2023-02-22T19:11:29.737Z,7.07
2023-02-22T19:13:58.429Z,7.01
2023-02-22T19:16:26.525Z,6.96
2023-02-22T19:18:54.087Z,6.92
2023-02-22T19:21:20.982Z,6.87
2023-02-22T19:23:48.660Z,6.84
2023-02-22T19:26:19.138Z,6.80
2023-02-22T19:28:46.919Z,6.75
2023-02-22T19:31:30.776Z,6.66
2023-02-22T19:34:03.137Z,6.65
2023-02-22T19:36:37.772Z,6.59
2023-02-22T19:39:05.304Z,6.55
2023-02-22T19:41:32.003Z,6.51
2023-02-22T19:43:58.941Z,6.45
2023-02-22T19:46:25.593Z,6.41
2023-02-22T19:48:53.472Z,6.32
2023-02-22T19:51:21.846Z,6.35
2023-02-22T19:53:49.821Z,6.31
2023-02-22T19:56:19.988Z,6.25
2023-02-22T19:58:49.460Z,6.16
2023-02-22T20:01:29.587Z,6.19
2023-02-22T20:03:59.379Z,6.11
2023-02-22T20:06:31.569Z,6.05
2023-02-22T20:08:58.063Z,6.06
2023-02-22T20:11:25.290Z,6.04
2023-02-22T20:13:51.931Z,6.00
2023-02-22T20:16:18.564Z,5.95
2023-02-22T20:18:46.357Z,5.92
2023-02-22T20:21:19.383Z,5.91
2023-02-22T20:23:46.070Z,5.88
2023-02-22T20:26:16.716Z,5.81
2023-02-22T20:28:43.235Z,5.83
2023-02-22T20:31:14.316Z,5.81
2023-02-22T20:33:41.941Z,5.77
2023-02-22T20:36:11.224Z,5.73
2023-02-22T20:38:38.086Z,5.73
2023-02-22T20:41:06.469Z,5.71
2023-02-22T20:43:33.618Z,5.70
2023-02-22T20:46:04.075Z,5.68
2023-02-22T20:48:31.241Z,5.66
2023-02-22T20:51:04.952Z,5.64
2023-02-22T20:53:31.462Z,5.59
2023-02-22T20:55:57.886Z,5.62
2023-02-22T20:58:25.494Z,5.64
2023-02-22T21:00:52.173Z,5.62
2023-02-22T21:03:18.678Z,5.60
2023-02-22T21:05:46.402Z,5.60
2023-02-22T21:08:14.234Z,5.61
2023-02-22T21:10:45.998Z,5.57
2023-02-22T21:13:12.771Z,5.63
2023-02-22T21:15:39.923Z,5.60
2023-02-22T21:18:06.398Z,5.58
2023-02-22T21:20:32.820Z,5.58
2023-02-22T21:22:59.258Z,5.57
2023-02-22T21:25:25.764Z,5.57
2023-02-22T21:27:52.540Z,5.55
2023-02-22T21:30:19.080Z,5.54
2023-02-22T21:32:50.309Z,5.54
2023-02-22T21:35:17.208Z,5.55
2023-02-22T21:37:43.670Z,5.54
2023-02-22T21:40:10.905Z,5.55
2023-02-22T21:42:37.494Z,5.54
2023-02-22T21:45:04.293Z,5.55
2023-02-22T21:47:30.730Z,5.57
2023-02-22T21:49:57.262Z,5.57
2023-02-22T21:52:23.713Z,5.58
2023-02-22T21:54:50.192Z,5.61
2023-02-22T21:57:16.668Z,5.64
2023-02-22T21:59:43.278Z,5.65
2023-02-22T22:02:10.476Z,5.65
2023-02-22T22:04:36.948Z,5.65
2023-02-22T22:07:03.526Z,5.65
2023-02-22T22:09:30.372Z,5.65
2023-02-22T22:11:59.313Z,5.67
2023-02-22T22:14:26.424Z,5.69
2023-02-22T22:16:55.503Z,5.70
2023-02-22T22:19:21.997Z,5.68
2023-02-22T22:21:48.506Z,5.71
2023-02-22T22:24:15.009Z,5.71
2023-02-22T22:26:41.522Z,5.71
2023-02-22T22:29:08.025Z,5.71
2023-02-22T22:31:34.597Z,5.71
2023-02-22T22:34:01.202Z,5.69
2023-02-22T22:36:28.110Z,5.69
2023-02-22T22:38:55.202Z,5.69
2023-02-22T22:41:21.756Z,5.64
2023-02-22T22:43:48.374Z,5.68
2023-02-22T22:46:17.100Z,5.67
2023-02-22T22:48:44.993Z,5.61
2023-02-22T22:51:13.821Z,5.64
2023-02-22T22:53:43.612Z,5.64
2023-02-22T22:56:21.492Z,5.61
2023-02-22T22:58:59.074Z,5.55
2023-02-22T23:01:29.012Z,5.51
2023-02-22T23:04:01.345Z,5.56
2023-02-22T23:06:40.776Z,5.47
2023-02-22T23:09:13.682Z,5.44
2023-02-22T23:11:42.933Z,5.43
2023-02-22T23:14:11.169Z,5.47
2023-02-22T23:16:37.925Z,5.44
2023-02-22T23:19:04.613Z,5.42
2023-02-22T23:21:31.118Z,5.38
2023-02-22T23:23:57.594Z,5.36
2023-02-22T23:26:25.611Z,5.34
2023-02-22T23:28:57.265Z,5.28
2023-02-22T23:31:23.904Z,5.31
2023-02-22T23:33:50.848Z,5.32
2023-02-22T23:36:18.814Z,5.27
2023-02-22T23:38:46.069Z,5.34
2023-02-22T23:41:15.022Z,5.37
2023-02-22T23:43:43.461Z,5.37
2023-02-22T23:46:17.510Z,5.44
2023-02-22T23:48:49.027Z,5.48
2023-02-22T23:51:18.375Z,5.50
2023-02-22T23:53:45.171Z,5.55
2023-02-22T23:56:18.112Z,5.55
2023-02-22T23:58:44.882Z,5.62
